Main page
METAR-TAF:

METAR-TAF

Airports :

RNAS Yeovilton (HMS Heron)

Yeovilton, England

latitude: 51-00N, longitude: 002-38W, elevation: 23 m

Current weather observation

The report was made 55 minutes ago, at 06:50 UTC
Wind 18 kt from the West/Northwest
Temperature 13°C
Humidity 62%
Pressure 998 hPa
Visibility 10 km or more

METAR: EGDY 050650Z AUTO 30018KT 9999 FEW042/// BKN120/// 13/06 Q0998

Time: 08:45 (07:45 UTC)

Forecast

The report was made 14 hours and 40 minutes ago, at 17:05 UTC
Forecast valid from 04 at 18 UTC to 05 at 03 UTC
Wind 15 kt from the West/Northwest with gusts up to 25 kt
Visibility 10 km or more
Few clouds at a height of 3000 ft
Broken clouds at a height of 5000 ft
Becoming
from 04 at 19 UTC to 04 at 21 UTC
Scattered clouds at a height of 2200 ft
Probability 40% :
Temporary
from 04 at 19 UTC to 05 at 03 UTC
Visibility: 8000 m
Scattered clouds at a height of 900 ft
rain showers

TAF: EGDY 041705Z 0418/0503 29015G25KT 9999 FEW030 BKN050 BECMG 0419/0421 SCT022 PROB40 TEMPO 0419/0503 8000 SHRA SCT009

Weather observations and forecasts of more than 4000 airports (METAR and TAF reports).

The available stations are represented by yellow and red dots on the map.

Hover mouse over dot to see the name of the station.

Then click to see weather observations and forecasts.

To change the map : click on the green buttons with a black cross to zoom in, on the green button with a dash to zoom out, or on the green arrows for adjacent maps.


METAR-TAF: